Terminal Aerodrome Forecast
Issued by NWS Quad Cities IA IL

Home | Current Version | Previous Version | Text Only | Print | Product List | Glossary On
Versions: 1 2 3 4 5 6 7 8 9 10 11 12 13 14 15 16 17 18 19 20 21 22 23 24 25
020
FTUS43 KDVN 300657 AAA
TAFMLI
TAF AMD
KMLI 300657Z 3007/3106 09009KT P6SM OVC010
     FM301000 05004KT 4SM BR SCT005 BKN010
      TEMPO 3010/3014 1SM BR BKN005
     FM301500 02005KT 6SM HZ SCT010 BKN025
     FM301900 02007KT P6SM BKN040=

USA.gov is the U.S. government's official web portal to all federal, state and local government web resources and services.